createdAt,value
2022-07-29T00:00:53.480Z,68.60
2022-07-29T00:03:55.102Z,69.10
2022-07-29T00:06:56.779Z,68.80
2022-07-29T00:09:58.426Z,68.70
2022-07-29T00:13:00.093Z,68.70
2022-07-29T00:16:03.773Z,69.30
2022-07-29T00:19:07.745Z,68.80
2022-07-29T00:22:09.653Z,69.10
2022-07-29T00:25:12.711Z,69.00
2022-07-29T00:28:14.319Z,70.40
2022-07-29T00:31:16.044Z,69.10
2022-07-29T00:34:36.590Z,69.20
2022-07-29T00:37:38.117Z,68.00
2022-07-29T00:40:39.861Z,68.90
2022-07-29T00:43:45.967Z,70.00
2022-07-29T00:46:47.635Z,69.30
2022-07-29T00:49:49.393Z,69.50
2022-07-29T00:52:51.944Z,70.10
2022-07-29T00:55:55.715Z,69.70
2022-07-29T00:58:58.808Z,70.00
2022-07-29T01:02:00.591Z,69.80
2022-07-29T01:05:04.695Z,69.70
2022-07-29T01:08:06.696Z,70.20
2022-07-29T01:11:08.476Z,70.10
2022-07-29T01:14:10.748Z,70.30
2022-07-29T01:17:18.722Z,70.50
2022-07-29T01:21:14.017Z,70.50
2022-07-29T01:24:22.173Z,68.80
2022-07-29T01:27:54.158Z,70.60
2022-07-29T01:30:57.500Z,70.50
2022-07-29T01:34:04.820Z,70.70
2022-07-29T01:37:24.743Z,70.80
2022-07-29T01:40:59.948Z,68.80
2022-07-29T01:44:11.068Z,68.70
2022-07-29T01:47:18.145Z,70.70
2022-07-29T01:50:24.349Z,71.00
2022-07-29T01:53:39.632Z,71.00
2022-07-29T01:56:42.587Z,71.00
2022-07-29T01:59:45.993Z,70.90
2022-07-29T02:02:49.343Z,72.00
2022-07-29T02:05:53.192Z,70.80
2022-07-29T02:08:56.814Z,71.10
2022-07-29T02:12:00.695Z,71.30
2022-07-29T02:15:05.312Z,72.50
2022-07-29T02:18:15.168Z,71.30
2022-07-29T02:21:22.078Z,72.70
2022-07-29T02:24:25.494Z,71.90
2022-07-29T02:27:29.240Z,71.90
2022-07-29T02:30:32.100Z,71.80
2022-07-29T02:33:34.770Z,72.40
2022-07-29T02:36:37.308Z,72.00
2022-07-29T02:39:41.773Z,71.80
2022-07-29T02:42:45.599Z,72.10
2022-07-29T02:45:52.500Z,71.90
2022-07-29T02:49:05.350Z,72.80
2022-07-29T02:52:16.880Z,70.50
2022-07-29T02:55:26.909Z,72.10
2022-07-29T02:58:57.456Z,72.30
2022-07-29T03:01:59.906Z,70.40
2022-07-29T03:05:03.706Z,71.70
2022-07-29T03:08:07.566Z,72.00
2022-07-29T03:11:10.515Z,72.30
2022-07-29T03:14:13.636Z,72.70
2022-07-29T03:17:16.170Z,73.30
2022-07-29T03:20:18.549Z,73.00
2022-07-29T03:23:24.951Z,74.20
2022-07-29T03:26:26.913Z,73.20
2022-07-29T03:29:33.884Z,73.30
2022-07-29T03:32:36.549Z,74.20
2022-07-29T03:35:38.222Z,73.80
2022-07-29T03:38:43.241Z,74.00
2022-07-29T03:41:48.697Z,74.30
2022-07-29T03:44:52.492Z,75.60
2022-07-29T03:48:00.882Z,74.30
2022-07-29T03:51:03.434Z,74.20
2022-07-29T03:54:14.096Z,74.40
2022-07-29T03:57:16.916Z,74.60
2022-07-29T04:00:18.917Z,74.80
2022-07-29T04:03:21.372Z,75.30
2022-07-29T04:06:23.070Z,74.70
2022-07-29T04:09:24.647Z,74.70
2022-07-29T04:12:26.276Z,75.00
2022-07-29T04:15:31.344Z,75.10
2022-07-29T04:18:33.548Z,75.10
2022-07-29T04:21:40.051Z,75.30
2022-07-29T04:24:44.359Z,75.60
2022-07-29T04:28:01.283Z,75.30
2022-07-29T04:31:02.926Z,74.60
2022-07-29T04:34:04.689Z,75.50
2022-07-29T04:37:06.302Z,75.90
2022-07-29T04:40:08.383Z,76.10
2022-07-29T04:43:10.028Z,75.60
2022-07-29T04:46:13.691Z,76.40
2022-07-29T04:49:15.457Z,76.20
2022-07-29T04:52:17.119Z,77.60
2022-07-29T04:55:18.868Z,76.50
2022-07-29T04:58:20.647Z,76.00
2022-07-29T05:01:22.386Z,77.60
2022-07-29T05:04:24.271Z,76.20
2022-07-29T05:07:25.877Z,77.60
2022-07-29T05:10:27.485Z,76.30
2022-07-29T05:13:29.109Z,76.70
2022-07-29T05:16:47.861Z,76.50
2022-07-29T05:19:51.117Z,77.10
2022-07-29T05:22:52.932Z,76.70
2022-07-29T05:25:54.517Z,76.60
2022-07-29T05:28:56.131Z,77.80
2022-07-29T05:31:58.083Z,76.60
2022-07-29T05:34:59.674Z,76.80
2022-07-29T05:38:01.299Z,76.60
2022-07-29T05:41:03.026Z,77.90
2022-07-29T05:44:04.673Z,79.10
2022-07-29T05:47:07.349Z,79.50
2022-07-29T05:50:09.657Z,80.40
2022-07-29T05:53:19.857Z,80.00
2022-07-29T05:56:22.087Z,82.30
2022-07-29T05:59:28.320Z,82.00
2022-07-29T06:02:31.915Z,81.00
2022-07-29T06:05:33.526Z,81.20
2022-07-29T06:08:35.258Z,81.50
2022-07-29T06:11:36.841Z,82.00
2022-07-29T06:14:39.125Z,81.40
2022-07-29T06:17:59.346Z,81.70
2022-07-29T06:21:02.258Z,82.80
2022-07-29T06:24:04.090Z,82.20
2022-07-29T06:27:05.658Z,81.80
2022-07-29T06:30:08.213Z,82.50
2022-07-29T06:33:09.804Z,82.60
2022-07-29T06:36:11.439Z,83.40
2022-07-29T06:39:14.161Z,83.70
2022-07-29T06:42:16.045Z,84.70
2022-07-29T06:45:17.657Z,84.60
2022-07-29T06:48:19.267Z,83.60
2022-07-29T06:51:22.816Z,83.90
2022-07-29T06:54:25.291Z,83.00
2022-07-29T06:57:27.264Z,83.00
2022-07-29T07:00:28.830Z,82.60
2022-07-29T07:03:30.985Z,82.80
2022-07-29T07:06:32.740Z,81.90
2022-07-29T07:09:39.931Z,82.60
2022-07-29T07:12:42.505Z,83.60
2022-07-29T07:15:46.206Z,82.60
2022-07-29T07:18:47.792Z,82.70
2022-07-29T07:21:49.436Z,82.40
2022-07-29T07:24:51.160Z,83.20
2022-07-29T07:27:52.771Z,82.90
2022-07-29T07:30:54.400Z,84.60
2022-07-29T07:33:56.226Z,83.60
2022-07-29T07:36:57.934Z,83.60
2022-07-29T07:40:00.167Z,84.40
2022-07-29T07:43:01.869Z,85.20
2022-07-29T07:46:03.586Z,85.60
2022-07-29T07:49:05.272Z,84.10
2022-07-29T07:52:07.076Z,84.10
2022-07-29T07:55:09.264Z,85.90
2022-07-29T07:58:10.949Z,84.00
2022-07-29T08:01:12.593Z,84.50
2022-07-29T08:04:14.619Z,83.40
2022-07-29T08:07:16.551Z,83.10
2022-07-29T08:10:38.342Z,84.00
2022-07-29T08:13:40.045Z,84.30
2022-07-29T08:16:43.136Z,83.60
2022-07-29T08:19:44.810Z,83.90
2022-07-29T08:22:47.225Z,84.60
2022-07-29T08:25:50.083Z,84.50
2022-07-29T08:28:52.132Z,84.90
2022-07-29T08:31:54.076Z,84.50
2022-07-29T08:34:55.979Z,84.80
2022-07-29T08:37:57.749Z,85.40
2022-07-29T08:41:01.052Z,85.10
2022-07-29T08:44:02.632Z,85.30
2022-07-29T08:47:04.659Z,85.30
2022-07-29T08:50:10.457Z,85.20
2022-07-29T08:53:14.960Z,83.90
2022-07-29T08:56:18.847Z,86.00
2022-07-29T08:59:22.761Z,85.90
2022-07-29T09:02:25.845Z,86.10
2022-07-29T09:05:28.555Z,86.90
2022-07-29T09:08:32.473Z,87.60
2022-07-29T09:11:34.398Z,87.50
2022-07-29T09:14:35.987Z,89.00
2022-07-29T09:17:42.524Z,88.50
2022-07-29T09:21:11.844Z,89.40
2022-07-29T09:24:14.820Z,90.30
2022-07-29T09:27:26.920Z,88.70
2022-07-29T09:30:31.886Z,87.50
2022-07-29T09:33:36.531Z,88.60
2022-07-29T09:36:47.188Z,88.90
2022-07-29T09:39:48.853Z,89.30
2022-07-29T09:42:51.756Z,88.50
2022-07-29T09:45:53.531Z,88.30
2022-07-29T09:49:10.728Z,88.60
2022-07-29T09:52:12.379Z,88.30
2022-07-29T09:55:18.201Z,88.10
2022-07-29T09:58:22.777Z,87.70
2022-07-29T10:01:30.417Z,87.80
2022-07-29T10:04:42.835Z,88.70
2022-07-29T10:07:54.187Z,88.50
2022-07-29T10:11:11.819Z,87.40
2022-07-29T10:14:13.554Z,88.50
2022-07-29T10:17:16.386Z,87.90
2022-07-29T10:20:18.555Z,87.90
2022-07-29T10:23:20.377Z,88.10
2022-07-29T10:26:21.971Z,87.80
2022-07-29T10:29:24.525Z,87.90
2022-07-29T10:32:55.066Z,88.50
2022-07-29T10:36:38.517Z,86.50
2022-07-29T10:39:59.209Z,85.30
2022-07-29T10:43:17.225Z,84.90
2022-07-29T10:46:20.452Z,85.30
2022-07-29T10:49:26.993Z,86.90
2022-07-29T10:52:59.833Z,87.50
2022-07-29T10:56:01.746Z,86.90
2022-07-29T10:59:26.958Z,85.40
2022-07-29T11:02:42.718Z,83.90
2022-07-29T11:05:55.040Z,85.20
2022-07-29T11:09:15.512Z,85.10
2022-07-29T11:12:37.132Z,81.80
2022-07-29T11:15:57.305Z,84.60
2022-07-29T11:19:14.797Z,84.20
2022-07-29T11:22:35.959Z,84.20
2022-07-29T11:25:42.799Z,83.80
2022-07-29T11:29:17.729Z,83.60
2022-07-29T11:32:24.367Z,83.20
2022-07-29T11:35:38.307Z,81.70
2022-07-29T11:38:41.895Z,81.80
2022-07-29T11:41:43.491Z,82.50
2022-07-29T11:44:58.189Z,81.90
2022-07-29T11:48:27.890Z,78.80
2022-07-29T11:51:32.950Z,80.20
2022-07-29T11:54:57.144Z,79.70
2022-07-29T11:58:04.123Z,80.00
2022-07-29T12:01:07.182Z,79.70
2022-07-29T12:04:09.266Z,79.60
2022-07-29T12:07:15.508Z,81.10
2022-07-29T12:10:19.855Z,80.20
2022-07-29T12:13:39.869Z,80.60
2022-07-29T12:16:41.521Z,80.90
2022-07-29T12:19:44.488Z,80.10
2022-07-29T12:22:49.279Z,80.10
2022-07-29T12:25:50.936Z,79.80
2022-07-29T12:28:52.553Z,79.40
2022-07-29T12:31:58.370Z,79.20
2022-07-29T12:35:07.218Z,78.40
2022-07-29T12:38:28.539Z,79.60
2022-07-29T12:41:42.492Z,75.30
2022-07-29T12:44:49.778Z,78.40
2022-07-29T12:48:14.063Z,77.90
2022-07-29T12:56:42.298Z,75.80
2022-07-29T13:14:24.288Z,76.50
2022-07-29T13:18:27.182Z,77.00
2022-07-29T13:21:32.119Z,74.50
2022-07-29T13:24:39.156Z,74.40
2022-07-29T13:27:48.031Z,73.70
2022-07-29T13:30:53.687Z,73.90
2022-07-29T13:34:00.312Z,74.40
2022-07-29T13:37:12.209Z,75.70
2022-07-29T13:40:22.515Z,74.60
2022-07-29T13:43:30.782Z,72.40
2022-07-29T13:46:37.057Z,73.90
2022-07-29T13:49:59.507Z,72.10
2022-07-29T13:53:02.499Z,72.00
2022-07-29T13:56:06.700Z,70.20
2022-07-29T13:59:08.661Z,71.30
2022-07-29T14:02:11.038Z,71.10
2022-07-29T14:05:12.797Z,72.00
2022-07-29T14:08:14.546Z,72.00
2022-07-29T14:11:16.317Z,69.60
2022-07-29T14:14:20.022Z,69.30
2022-07-29T14:17:21.727Z,70.80
2022-07-29T14:20:23.649Z,69.90
2022-07-29T14:23:25.206Z,69.30
2022-07-29T14:26:28.116Z,69.00
2022-07-29T14:29:37.267Z,69.50
2022-07-29T14:32:40.319Z,68.60
2022-07-29T14:35:42.080Z,68.90
2022-07-29T14:38:43.849Z,68.30
2022-07-29T14:41:45.513Z,68.20
2022-07-29T14:44:48.725Z,67.60
2022-07-29T14:47:51.673Z,67.70
2022-07-29T14:51:04.308Z,68.00
2022-07-29T14:54:06.448Z,69.70
2022-07-29T14:57:08.096Z,67.50
2022-07-29T15:00:11.196Z,68.70
2022-07-29T15:03:12.951Z,66.80
2022-07-29T15:06:25.618Z,67.10
2022-07-29T15:09:27.300Z,67.20
2022-07-29T15:12:29.088Z,66.50
2022-07-29T15:18:35.712Z,66.70
2022-07-29T15:21:41.417Z,69.10
2022-07-29T15:24:49.932Z,66.10
2022-07-29T15:27:52.381Z,68.00
2022-07-29T15:30:55.406Z,68.80
2022-07-29T15:34:01.278Z,69.20
2022-07-29T15:37:07.153Z,69.30
2022-07-29T15:40:09.392Z,68.40
2022-07-29T15:43:11.061Z,70.10
2022-07-29T15:46:33.468Z,71.00
2022-07-29T15:49:47.555Z,70.80
2022-07-29T15:52:50.819Z,70.60
2022-07-29T15:55:52.836Z,71.70
2022-07-29T15:58:54.400Z,72.10
2022-07-29T16:01:56.442Z,70.90
2022-07-29T16:04:58.012Z,70.80
2022-07-29T16:08:00.566Z,71.30
2022-07-29T16:11:02.708Z,72.20
2022-07-29T16:14:04.849Z,72.20
2022-07-29T16:17:06.556Z,72.30
2022-07-29T16:20:08.700Z,72.10
2022-07-29T16:23:12.083Z,72.00
2022-07-29T16:26:13.805Z,72.80
2022-07-29T16:29:15.380Z,72.10
2022-07-29T16:32:22.350Z,71.90
2022-07-29T16:35:24.366Z,72.80
2022-07-29T16:38:46.998Z,72.30
2022-07-29T16:41:49.296Z,72.90
2022-07-29T16:44:50.937Z,73.10
2022-07-29T16:48:00.019Z,72.90
2022-07-29T16:51:02.022Z,72.00
2022-07-29T16:54:03.756Z,72.50
2022-07-29T16:57:05.353Z,72.00
2022-07-29T17:00:07.643Z,72.40
2022-07-29T17:03:09.276Z,71.60
2022-07-29T17:06:11.886Z,72.30
2022-07-29T17:09:26.741Z,71.80
2022-07-29T17:12:28.550Z,72.30
2022-07-29T17:15:30.261Z,71.80
2022-07-29T17:18:38.039Z,71.90
2022-07-29T17:21:48.737Z,73.50
2022-07-29T17:24:50.980Z,71.90
2022-07-29T17:27:54.463Z,72.10
2022-07-29T17:30:59.238Z,72.30
2022-07-29T17:34:02.676Z,72.80
2022-07-29T17:37:05.891Z,72.60
2022-07-29T17:40:08.035Z,71.20
2022-07-29T17:43:09.651Z,68.00
2022-07-29T17:46:11.324Z,69.30
2022-07-29T17:49:13.042Z,69.90
2022-07-29T17:52:15.790Z,70.30
2022-07-29T17:55:17.521Z,70.40
2022-07-29T17:58:19.345Z,70.80
2022-07-29T18:01:21.209Z,71.10
2022-07-29T18:04:23.499Z,71.50
2022-07-29T18:07:25.254Z,68.00
2022-07-29T18:10:26.980Z,66.20
2022-07-29T18:13:28.629Z,68.70
2022-07-29T18:16:30.362Z,70.40
2022-07-29T18:19:32.071Z,73.30
2022-07-29T18:22:34.059Z,73.30
2022-07-29T18:25:35.888Z,72.80
2022-07-29T18:28:37.724Z,73.00
2022-07-29T18:31:41.638Z,74.00
2022-07-29T18:34:43.293Z,74.50
2022-07-29T18:38:00.894Z,73.80
2022-07-29T18:41:04.951Z,74.50
2022-07-29T18:44:07.219Z,73.30
2022-07-29T18:47:12.524Z,73.30
2022-07-29T18:50:16.322Z,74.30
2022-07-29T18:53:22.552Z,74.00
2022-07-29T18:56:24.979Z,73.70
2022-07-29T18:59:27.254Z,72.80
2022-07-29T19:02:31.146Z,73.50
2022-07-29T19:05:33.592Z,74.80
2022-07-29T19:08:40.185Z,74.90
2022-07-29T19:11:44.119Z,75.10
2022-07-29T19:14:46.712Z,74.80
2022-07-29T19:17:49.527Z,76.20
2022-07-29T19:20:51.926Z,76.20
2022-07-29T19:24:05.896Z,76.50
2022-07-29T19:27:09.305Z,76.10
2022-07-29T19:30:11.379Z,78.20
2022-07-29T19:33:14.570Z,77.30
2022-07-29T19:36:16.996Z,78.10
2022-07-29T19:39:19.356Z,78.20
2022-07-29T19:42:37.464Z,78.40
2022-07-29T19:45:39.959Z,78.60
2022-07-29T19:48:42.347Z,78.80
2022-07-29T19:51:44.889Z,79.00
2022-07-29T19:54:51.500Z,79.50
2022-07-29T19:57:53.977Z,80.10
2022-07-29T20:00:57.330Z,80.10
2022-07-29T20:03:59.651Z,81.00
2022-07-29T20:07:06.344Z,81.60
2022-07-29T20:10:16.720Z,81.90
2022-07-29T20:13:26.545Z,81.20
2022-07-29T20:16:28.424Z,81.50
2022-07-29T20:19:30.890Z,81.40
2022-07-29T20:22:32.631Z,81.60
2022-07-29T20:25:34.309Z,82.10
2022-07-29T20:28:36.124Z,81.90
2022-07-29T20:31:38.069Z,83.10
2022-07-29T20:34:43.370Z,83.20
2022-07-29T20:37:52.153Z,82.40
2022-07-29T20:40:58.789Z,82.60
2022-07-29T20:44:01.656Z,82.80
2022-07-29T20:47:03.605Z,83.90
2022-07-29T20:50:06.027Z,82.80
2022-07-29T20:53:07.762Z,82.20
2022-07-29T20:56:09.496Z,82.90
2022-07-29T20:59:11.394Z,84.10
2022-07-29T21:02:13.192Z,84.60
2022-07-29T21:05:15.044Z,84.10
2022-07-29T21:08:16.783Z,83.40
2022-07-29T21:11:18.745Z,84.60
2022-07-29T21:14:40.444Z,84.50
2022-07-29T21:17:49.373Z,84.90
2022-07-29T21:20:51.169Z,82.90
2022-07-29T21:23:53.272Z,84.20
2022-07-29T21:27:21.162Z,84.40
2022-07-29T21:30:23.590Z,84.20
2022-07-29T21:33:27.639Z,84.20
2022-07-29T21:36:47.722Z,85.30
2022-07-29T21:39:50.181Z,84.40
2022-07-29T21:42:52.464Z,83.90
2022-07-29T21:45:57.664Z,84.20
2022-07-29T21:48:59.452Z,82.30
2022-07-29T21:52:01.181Z,84.00
2022-07-29T21:55:03.657Z,83.60
2022-07-29T21:58:06.482Z,83.60
2022-07-29T22:01:08.193Z,83.90
2022-07-29T22:04:10.087Z,83.90
2022-07-29T22:07:11.771Z,84.30
2022-07-29T22:10:13.530Z,84.90
2022-07-29T22:13:15.211Z,84.70
2022-07-29T22:16:17.572Z,86.30
2022-07-29T22:19:19.249Z,85.20
2022-07-29T22:22:21.600Z,86.60
2022-07-29T22:25:23.257Z,86.10
2022-07-29T22:28:24.844Z,85.00
2022-07-29T22:31:26.558Z,86.40
2022-07-29T22:34:37.053Z,85.60
2022-07-29T22:37:39.553Z,85.80
2022-07-29T22:40:41.165Z,85.30
2022-07-29T22:43:42.805Z,86.20
2022-07-29T22:46:44.656Z,85.50
2022-07-29T22:49:46.462Z,86.80
2022-07-29T22:52:48.033Z,85.60
2022-07-29T22:55:49.801Z,85.90
2022-07-29T22:58:51.529Z,85.40
2022-07-29T23:01:53.191Z,85.90
2022-07-29T23:04:55.055Z,85.90
2022-07-29T23:07:56.611Z,86.00
2022-07-29T23:10:58.463Z,86.30
2022-07-29T23:14:00.140Z,86.30
2022-07-29T23:17:02.002Z,87.60
2022-07-29T23:20:06.717Z,85.80
2022-07-29T23:23:08.344Z,86.50
2022-07-29T23:26:10.854Z,87.20
2022-07-29T23:29:12.470Z,87.10
2022-07-29T23:32:14.049Z,87.30
2022-07-29T23:35:15.664Z,87.60
2022-07-29T23:38:17.283Z,87.80
2022-07-29T23:41:18.957Z,87.50
2022-07-29T23:44:20.671Z,87.80
2022-07-29T23:47:22.311Z,88.00
2022-07-29T23:50:23.980Z,88.80
2022-07-29T23:53:25.594Z,88.40
2022-07-29T23:56:27.161Z,88.40
2022-07-29T23:59:28.748Z,89.50
